KOFF

Offutt AFB Airport

Omaha, Nebraska, USA
METAR KOFF 182256Z AUTO 08005KT 10SM FEW050 29/19 A2997 RMK AO2 SLP146 T02880194 $
Observed Flight Rules
Aug-18 @ 22:56 UTC (51 minutes ago) Visual Flight Rules
Wind Visibility Clouds
80° at 5 knots 10 miles
  • Few at 5,000' AGL
Temperatures Readings
Current 29°C / 84°F
Dewpoint 19°C / 66°F
Humidity 55%
Altimeter 29.97" Hg
Pressure 1014.6 hPa
Elevation 319
METAR KOFF 182256Z AUTO 08005KT 10SM FEW050 29/19 A2997 RMK AO2 SLP146 T02880194 $
Observed Flight Rules
Aug-18 @ 22:56 UTC
(51 minutes ago)
VFR
Wind Visibility
80° at 5 knots 10 miles
Clouds
  • Few at 5,000' AGL
Temperature Dewpoint
29°C / 84°F 19°C / 66°F
Humidity Altimeter Pressure
55% 29.97" Hg 1014.6 hPa